<?xml version="1.0" encoding="UTF-8" standalone="no" ?>
<gpx xmlns="http://www.topografix.com/GPX/1/1" xmlns:xsi="http://www.w3.org/2001/XMLSchema-instance" xsi:schemaLocation="http://www.topografix.com/GPX/1/1 http://www.topografix.com/GPX/1/1/gpx.xsd" version="1.1" creator="VisuGPX - https://www.visugpx.com">
  <metadata>
    <name>randonnée Mercurey Aluze</name>
  </metadata>
  <trk>
    <name><![CDATA[Mercurey-18693929]]></name>
    <trkseg>
      <trkpt lat="46.83941" lon="4.71913">
        <ele>256</ele>
        <time>2024-04-07T06:46:39Z</time>
      </trkpt>
      <trkpt lat="46.83952" lon="4.71971">
        <ele>258</ele>
        <time>2024-04-07T06:47:34Z</time>
      </trkpt>
      <trkpt lat="46.83951" lon="4.72019">
        <ele>258</ele>
        <time>2024-04-07T06:48:18Z</time>
      </trkpt>
      <trkpt lat="46.83939" lon="4.72127">
        <ele>257</ele>
        <time>2024-04-07T06:49:58Z</time>
      </trkpt>
      <trkpt lat="46.83962" lon="4.72128">
        <ele>259</ele>
        <time>2024-04-07T06:50:28Z</time>
      </trkpt>
      <trkpt lat="46.83993" lon="4.72185">
        <ele>262</ele>
        <time>2024-04-07T06:51:35Z</time>
      </trkpt>
      <trkpt lat="46.84054" lon="4.72216">
        <ele>271</ele>
        <time>2024-04-07T06:53:01Z</time>
      </trkpt>
      <trkpt lat="46.84093" lon="4.72242">
        <ele>278</ele>
        <time>2024-04-07T06:53:58Z</time>
      </trkpt>
      <trkpt lat="46.84192" lon="4.72292">
        <ele>295</ele>
        <time>2024-04-07T06:56:18Z</time>
      </trkpt>
      <trkpt lat="46.8421" lon="4.72299">
        <ele>298</ele>
        <time>2024-04-07T06:56:43Z</time>
      </trkpt>
      <trkpt lat="46.84216" lon="4.72296">
        <ele>299</ele>
        <time>2024-04-07T06:56:51Z</time>
      </trkpt>
      <trkpt lat="46.8424" lon="4.72326">
        <ele>306</ele>
        <time>2024-04-07T06:57:33Z</time>
      </trkpt>
      <trkpt lat="46.84261" lon="4.72368">
        <ele>318</ele>
        <time>2024-04-07T06:58:21Z</time>
      </trkpt>
      <trkpt lat="46.84256" lon="4.72381">
        <ele>318</ele>
        <time>2024-04-07T06:58:35Z</time>
      </trkpt>
      <trkpt lat="46.84259" lon="4.72413">
        <ele>324</ele>
        <time>2024-04-07T06:59:04Z</time>
      </trkpt>
      <trkpt lat="46.84249" lon="4.7244">
        <ele>325</ele>
        <time>2024-04-07T06:59:32Z</time>
      </trkpt>
      <trkpt lat="46.84243" lon="4.7247">
        <ele>327</ele>
        <time>2024-04-07T07:00:01Z</time>
      </trkpt>
      <trkpt lat="46.84258" lon="4.72456">
        <ele>328</ele>
        <time>2024-04-07T07:00:24Z</time>
      </trkpt>
      <trkpt lat="46.84308" lon="4.72382">
        <ele>331</ele>
        <time>2024-04-07T07:01:59Z</time>
      </trkpt>
      <trkpt lat="46.84351" lon="4.72357">
        <ele>337</ele>
        <time>2024-04-07T07:03:01Z</time>
      </trkpt>
      <trkpt lat="46.844" lon="4.72323">
        <ele>344</ele>
        <time>2024-04-07T07:04:13Z</time>
      </trkpt>
      <trkpt lat="46.84491" lon="4.72285">
        <ele>349</ele>
        <time>2024-04-07T07:06:20Z</time>
      </trkpt>
      <trkpt lat="46.84597" lon="4.72199">
        <ele>351</ele>
        <time>2024-04-07T07:09:01Z</time>
      </trkpt>
      <trkpt lat="46.84624" lon="4.72181">
        <ele>350</ele>
        <time>2024-04-07T07:09:41Z</time>
      </trkpt>
      <trkpt lat="46.84664" lon="4.72162">
        <ele>351</ele>
        <time>2024-04-07T07:10:37Z</time>
      </trkpt>
      <trkpt lat="46.84689" lon="4.72177">
        <ele>350</ele>
        <time>2024-04-07T07:11:13Z</time>
      </trkpt>
      <trkpt lat="46.84691" lon="4.7219">
        <ele>351</ele>
        <time>2024-04-07T07:11:25Z</time>
      </trkpt>
      <trkpt lat="46.84702" lon="4.72196">
        <ele>350</ele>
        <time>2024-04-07T07:11:41Z</time>
      </trkpt>
      <trkpt lat="46.84699" lon="4.72155">
        <ele>346</ele>
        <time>2024-04-07T07:12:19Z</time>
      </trkpt>
      <trkpt lat="46.8471" lon="4.72138">
        <ele>342</ele>
        <time>2024-04-07T07:12:40Z</time>
      </trkpt>
      <trkpt lat="46.84731" lon="4.72059">
        <ele>333</ele>
        <time>2024-04-07T07:13:57Z</time>
      </trkpt>
      <trkpt lat="46.84754" lon="4.72062">
        <ele>333</ele>
        <time>2024-04-07T07:14:28Z</time>
      </trkpt>
      <trkpt lat="46.84819" lon="4.72096">
        <ele>331</ele>
        <time>2024-04-07T07:16:00Z</time>
      </trkpt>
      <trkpt lat="46.84843" lon="4.72105">
        <ele>330</ele>
        <time>2024-04-07T07:16:33Z</time>
      </trkpt>
      <trkpt lat="46.84891" lon="4.72135">
        <ele>327</ele>
        <time>2024-04-07T07:17:43Z</time>
      </trkpt>
      <trkpt lat="46.84961" lon="4.72153">
        <ele>321</ele>
        <time>2024-04-07T07:19:18Z</time>
      </trkpt>
      <trkpt lat="46.85069" lon="4.72199">
        <ele>318</ele>
        <time>2024-04-07T07:21:48Z</time>
      </trkpt>
      <trkpt lat="46.85231" lon="4.72231">
        <ele>319</ele>
        <time>2024-04-07T07:25:26Z</time>
      </trkpt>
      <trkpt lat="46.85256" lon="4.72247">
        <ele>319</ele>
        <time>2024-04-07T07:26:03Z</time>
      </trkpt>
      <trkpt lat="46.85282" lon="4.72275">
        <ele>318</ele>
        <time>2024-04-07T07:26:46Z</time>
      </trkpt>
      <trkpt lat="46.85302" lon="4.7231">
        <ele>318</ele>
        <time>2024-04-07T07:27:27Z</time>
      </trkpt>
      <trkpt lat="46.85327" lon="4.72367">
        <ele>318</ele>
        <time>2024-04-07T07:28:29Z</time>
      </trkpt>
      <trkpt lat="46.85344" lon="4.72397">
        <ele>316</ele>
        <time>2024-04-07T07:29:05Z</time>
      </trkpt>
      <trkpt lat="46.85351" lon="4.72391">
        <ele>316</ele>
        <time>2024-04-07T07:29:16Z</time>
      </trkpt>
      <trkpt lat="46.85369" lon="4.72407">
        <ele>315</ele>
        <time>2024-04-07T07:29:44Z</time>
      </trkpt>
      <trkpt lat="46.85421" lon="4.72486">
        <ele>316</ele>
        <time>2024-04-07T07:31:24Z</time>
      </trkpt>
      <trkpt lat="46.85482" lon="4.72554">
        <ele>311</ele>
        <time>2024-04-07T07:33:06Z</time>
      </trkpt>
      <trkpt lat="46.85528" lon="4.72657">
        <ele>311</ele>
        <time>2024-04-07T07:34:58Z</time>
      </trkpt>
      <trkpt lat="46.85549" lon="4.7269">
        <ele>309</ele>
        <time>2024-04-07T07:35:39Z</time>
      </trkpt>
      <trkpt lat="46.85649" lon="4.72819">
        <ele>299</ele>
        <time>2024-04-07T07:38:37Z</time>
      </trkpt>
      <trkpt lat="46.8572" lon="4.72695">
        <ele>285</ele>
        <time>2024-04-07T07:41:05Z</time>
      </trkpt>
      <trkpt lat="46.8575" lon="4.72725">
        <ele>282</ele>
        <time>2024-04-07T07:41:53Z</time>
      </trkpt>
      <trkpt lat="46.85783" lon="4.7279">
        <ele>282</ele>
        <time>2024-04-07T07:43:07Z</time>
      </trkpt>
      <trkpt lat="46.85788" lon="4.72795">
        <ele>281</ele>
        <time>2024-04-07T07:43:15Z</time>
      </trkpt>
      <trkpt lat="46.85793" lon="4.72795">
        <ele>281</ele>
        <time>2024-04-07T07:43:22Z</time>
      </trkpt>
      <trkpt lat="46.85859" lon="4.72861">
        <ele>280</ele>
        <time>2024-04-07T07:45:09Z</time>
      </trkpt>
      <trkpt lat="46.85901" lon="4.72893">
        <ele>280</ele>
        <time>2024-04-07T07:46:12Z</time>
      </trkpt>
      <trkpt lat="46.85986" lon="4.72919">
        <ele>281</ele>
        <time>2024-04-07T07:48:08Z</time>
      </trkpt>
      <trkpt lat="46.86027" lon="4.7295">
        <ele>281</ele>
        <time>2024-04-07T07:49:09Z</time>
      </trkpt>
      <trkpt lat="46.86103" lon="4.72982">
        <ele>281</ele>
        <time>2024-04-07T07:50:55Z</time>
      </trkpt>
      <trkpt lat="46.86187" lon="4.7303">
        <ele>277</ele>
        <time>2024-04-07T07:52:55Z</time>
      </trkpt>
      <trkpt lat="46.86205" lon="4.73048">
        <ele>276</ele>
        <time>2024-04-07T07:53:24Z</time>
      </trkpt>
      <trkpt lat="46.86242" lon="4.73109">
        <ele>276</ele>
        <time>2024-04-07T07:54:39Z</time>
      </trkpt>
      <trkpt lat="46.8626" lon="4.73129">
        <ele>274</ele>
        <time>2024-04-07T07:55:09Z</time>
      </trkpt>
      <trkpt lat="46.86302" lon="4.73168">
        <ele>273</ele>
        <time>2024-04-07T07:56:15Z</time>
      </trkpt>
      <trkpt lat="46.86331" lon="4.73204">
        <ele>272</ele>
        <time>2024-04-07T07:57:06Z</time>
      </trkpt>
      <trkpt lat="46.8637" lon="4.73237">
        <ele>271</ele>
        <time>2024-04-07T07:58:06Z</time>
      </trkpt>
      <trkpt lat="46.86429" lon="4.73281">
        <ele>268</ele>
        <time>2024-04-07T07:59:35Z</time>
      </trkpt>
      <trkpt lat="46.86482" lon="4.73309">
        <ele>264</ele>
        <time>2024-04-07T08:00:50Z</time>
      </trkpt>
      <trkpt lat="46.86547" lon="4.73359">
        <ele>261</ele>
        <time>2024-04-07T08:02:28Z</time>
      </trkpt>
      <trkpt lat="46.86593" lon="4.73365">
        <ele>258</ele>
        <time>2024-04-07T08:03:30Z</time>
      </trkpt>
      <trkpt lat="46.86622" lon="4.73377">
        <ele>256</ele>
        <time>2024-04-07T08:04:10Z</time>
      </trkpt>
      <trkpt lat="46.86655" lon="4.73405">
        <ele>256</ele>
        <time>2024-04-07T08:05:01Z</time>
      </trkpt>
      <trkpt lat="46.86669" lon="4.73409">
        <ele>256</ele>
        <time>2024-04-07T08:05:20Z</time>
      </trkpt>
      <trkpt lat="46.86694" lon="4.7341">
        <ele>255</ele>
        <time>2024-04-07T08:05:53Z</time>
      </trkpt>
      <trkpt lat="46.86704" lon="4.73421">
        <ele>255</ele>
        <time>2024-04-07T08:06:10Z</time>
      </trkpt>
      <trkpt lat="46.86768" lon="4.73426">
        <ele>254</ele>
        <time>2024-04-07T08:07:35Z</time>
      </trkpt>
      <trkpt lat="46.86795" lon="4.73437">
        <ele>255</ele>
        <time>2024-04-07T08:08:13Z</time>
      </trkpt>
      <trkpt lat="46.86812" lon="4.73455">
        <ele>255</ele>
        <time>2024-04-07T08:08:41Z</time>
      </trkpt>
      <trkpt lat="46.86827" lon="4.73346">
        <ele>250</ele>
        <time>2024-04-07T08:10:22Z</time>
      </trkpt>
      <trkpt lat="46.86839" lon="4.73309">
        <ele>246</ele>
        <time>2024-04-07T08:11:00Z</time>
      </trkpt>
      <trkpt lat="46.86863" lon="4.7327">
        <ele>241</ele>
        <time>2024-04-07T08:11:47Z</time>
      </trkpt>
      <trkpt lat="46.869" lon="4.73269">
        <ele>241</ele>
        <time>2024-04-07T08:12:37Z</time>
      </trkpt>
      <trkpt lat="46.8691" lon="4.73271">
        <ele>241</ele>
        <time>2024-04-07T08:12:50Z</time>
      </trkpt>
      <trkpt lat="46.86924" lon="4.73279">
        <ele>242</ele>
        <time>2024-04-07T08:13:10Z</time>
      </trkpt>
      <trkpt lat="46.86942" lon="4.73282">
        <ele>243</ele>
        <time>2024-04-07T08:13:34Z</time>
      </trkpt>
      <trkpt lat="46.87012" lon="4.73277">
        <ele>240</ele>
        <time>2024-04-07T08:15:08Z</time>
      </trkpt>
      <trkpt lat="46.87016" lon="4.73264">
        <ele>239</ele>
        <time>2024-04-07T08:15:21Z</time>
      </trkpt>
      <trkpt lat="46.87075" lon="4.73145">
        <ele>238</ele>
        <time>2024-04-07T08:17:35Z</time>
      </trkpt>
      <trkpt lat="46.87102" lon="4.73076">
        <ele>244</ele>
        <time>2024-04-07T08:18:48Z</time>
      </trkpt>
      <trkpt lat="46.87106" lon="4.73048">
        <ele>246</ele>
        <time>2024-04-07T08:19:14Z</time>
      </trkpt>
      <trkpt lat="46.87149" lon="4.7303">
        <ele>250</ele>
        <time>2024-04-07T08:20:13Z</time>
      </trkpt>
      <trkpt lat="46.87174" lon="4.73026">
        <ele>252</ele>
        <time>2024-04-07T08:20:47Z</time>
      </trkpt>
      <trkpt lat="46.87187" lon="4.73031">
        <ele>252</ele>
        <time>2024-04-07T08:21:05Z</time>
      </trkpt>
      <trkpt lat="46.87202" lon="4.73032">
        <ele>253</ele>
        <time>2024-04-07T08:21:25Z</time>
      </trkpt>
      <trkpt lat="46.87218" lon="4.73023">
        <ele>254</ele>
        <time>2024-04-07T08:21:48Z</time>
      </trkpt>
      <trkpt lat="46.87211" lon="4.7299">
        <ele>257</ele>
        <time>2024-04-07T08:22:19Z</time>
      </trkpt>
      <trkpt lat="46.87234" lon="4.72931">
        <ele>264</ele>
        <time>2024-04-07T08:23:21Z</time>
      </trkpt>
      <trkpt lat="46.87238" lon="4.7291">
        <ele>267</ele>
        <time>2024-04-07T08:23:41Z</time>
      </trkpt>
      <trkpt lat="46.87234" lon="4.72893">
        <ele>269</ele>
        <time>2024-04-07T08:23:58Z</time>
      </trkpt>
      <trkpt lat="46.87204" lon="4.72848">
        <ele>271</ele>
        <time>2024-04-07T08:24:55Z</time>
      </trkpt>
      <trkpt lat="46.87198" lon="4.7282">
        <ele>275</ele>
        <time>2024-04-07T08:25:22Z</time>
      </trkpt>
      <trkpt lat="46.87217" lon="4.72792">
        <ele>282</ele>
        <time>2024-04-07T08:25:58Z</time>
      </trkpt>
      <trkpt lat="46.87224" lon="4.72771">
        <ele>286</ele>
        <time>2024-04-07T08:26:19Z</time>
      </trkpt>
      <trkpt lat="46.87205" lon="4.72658">
        <ele>305</ele>
        <time>2024-04-07T08:28:05Z</time>
      </trkpt>
      <trkpt lat="46.87207" lon="4.72614">
        <ele>313</ele>
        <time>2024-04-07T08:28:45Z</time>
      </trkpt>
      <trkpt lat="46.87205" lon="4.72467">
        <ele>329</ele>
        <time>2024-04-07T08:31:00Z</time>
      </trkpt>
      <trkpt lat="46.87206" lon="4.72476">
        <ele>329</ele>
        <time>2024-04-07T08:31:08Z</time>
      </trkpt>
      <trkpt lat="46.87221" lon="4.72438">
        <ele>329</ele>
        <time>2024-04-07T08:31:48Z</time>
      </trkpt>
      <trkpt lat="46.87233" lon="4.7244">
        <ele>328</ele>
        <time>2024-04-07T08:32:04Z</time>
      </trkpt>
      <trkpt lat="46.87254" lon="4.72426">
        <ele>327</ele>
        <time>2024-04-07T08:32:35Z</time>
      </trkpt>
      <trkpt lat="46.8726" lon="4.72453">
        <ele>330</ele>
        <time>2024-04-07T08:33:01Z</time>
      </trkpt>
      <trkpt lat="46.87258" lon="4.72467">
        <ele>330</ele>
        <time>2024-04-07T08:33:14Z</time>
      </trkpt>
      <trkpt lat="46.8724" lon="4.72477">
        <ele>329</ele>
        <time>2024-04-07T08:33:39Z</time>
      </trkpt>
      <trkpt lat="46.87241" lon="4.72487">
        <ele>330</ele>
        <time>2024-04-07T08:33:49Z</time>
      </trkpt>
      <trkpt lat="46.87251" lon="4.72504">
        <ele>331</ele>
        <time>2024-04-07T08:34:09Z</time>
      </trkpt>
      <trkpt lat="46.8725" lon="4.72525">
        <ele>329</ele>
        <time>2024-04-07T08:34:28Z</time>
      </trkpt>
      <trkpt lat="46.87252" lon="4.72534">
        <ele>329</ele>
        <time>2024-04-07T08:34:37Z</time>
      </trkpt>
      <trkpt lat="46.87262" lon="4.72547">
        <ele>330</ele>
        <time>2024-04-07T08:34:55Z</time>
      </trkpt>
      <trkpt lat="46.87266" lon="4.72563">
        <ele>329</ele>
        <time>2024-04-07T08:35:10Z</time>
      </trkpt>
      <trkpt lat="46.87277" lon="4.72578">
        <ele>331</ele>
        <time>2024-04-07T08:35:30Z</time>
      </trkpt>
      <trkpt lat="46.87282" lon="4.72597">
        <ele>330</ele>
        <time>2024-04-07T08:35:49Z</time>
      </trkpt>
      <trkpt lat="46.87318" lon="4.72608">
        <ele>338</ele>
        <time>2024-04-07T08:36:38Z</time>
      </trkpt>
      <trkpt lat="46.87341" lon="4.72603">
        <ele>344</ele>
        <time>2024-04-07T08:37:09Z</time>
      </trkpt>
      <trkpt lat="46.87355" lon="4.72592">
        <ele>346</ele>
        <time>2024-04-07T08:37:30Z</time>
      </trkpt>
      <trkpt lat="46.87359" lon="4.72554">
        <ele>346</ele>
        <time>2024-04-07T08:38:05Z</time>
      </trkpt>
      <trkpt lat="46.87375" lon="4.72572">
        <ele>347</ele>
        <time>2024-04-07T08:38:32Z</time>
      </trkpt>
      <trkpt lat="46.87425" lon="4.72597">
        <ele>350</ele>
        <time>2024-04-07T08:39:43Z</time>
      </trkpt>
      <trkpt lat="46.87468" lon="4.72608">
        <ele>353</ele>
        <time>2024-04-07T08:40:41Z</time>
      </trkpt>
      <trkpt lat="46.87503" lon="4.7263">
        <ele>355</ele>
        <time>2024-04-07T08:41:32Z</time>
      </trkpt>
      <trkpt lat="46.87512" lon="4.72629">
        <ele>356</ele>
        <time>2024-04-07T08:41:44Z</time>
      </trkpt>
      <trkpt lat="46.87523" lon="4.72612">
        <ele>358</ele>
        <time>2024-04-07T08:42:05Z</time>
      </trkpt>
      <trkpt lat="46.87546" lon="4.72615">
        <ele>360</ele>
        <time>2024-04-07T08:42:36Z</time>
      </trkpt>
      <trkpt lat="46.87616" lon="4.72649">
        <ele>362</ele>
        <time>2024-04-07T08:44:15Z</time>
      </trkpt>
      <trkpt lat="46.87696" lon="4.72677">
        <ele>360</ele>
        <time>2024-04-07T08:46:04Z</time>
      </trkpt>
      <trkpt lat="46.87789" lon="4.7274">
        <ele>355</ele>
        <time>2024-04-07T08:48:21Z</time>
      </trkpt>
      <trkpt lat="46.87837" lon="4.72782">
        <ele>353</ele>
        <time>2024-04-07T08:49:36Z</time>
      </trkpt>
      <trkpt lat="46.87857" lon="4.72826">
        <ele>349</ele>
        <time>2024-04-07T08:50:24Z</time>
      </trkpt>
      <trkpt lat="46.87879" lon="4.72857">
        <ele>348</ele>
        <time>2024-04-07T08:51:05Z</time>
      </trkpt>
      <trkpt lat="46.87898" lon="4.72875">
        <ele>347</ele>
        <time>2024-04-07T08:51:35Z</time>
      </trkpt>
      <trkpt lat="46.87966" lon="4.72888">
        <ele>350</ele>
        <time>2024-04-07T08:53:06Z</time>
      </trkpt>
      <trkpt lat="46.88018" lon="4.72918">
        <ele>350</ele>
        <time>2024-04-07T08:54:21Z</time>
      </trkpt>
      <trkpt lat="46.88055" lon="4.72932">
        <ele>350</ele>
        <time>2024-04-07T08:55:12Z</time>
      </trkpt>
      <trkpt lat="46.8807" lon="4.72957">
        <ele>349</ele>
        <time>2024-04-07T08:55:42Z</time>
      </trkpt>
      <trkpt lat="46.8809" lon="4.73">
        <ele>346</ele>
        <time>2024-04-07T08:56:30Z</time>
      </trkpt>
      <trkpt lat="46.88103" lon="4.73012">
        <ele>346</ele>
        <time>2024-04-07T08:56:50Z</time>
      </trkpt>
      <trkpt lat="46.88108" lon="4.73028">
        <ele>345</ele>
        <time>2024-04-07T08:57:06Z</time>
      </trkpt>
      <trkpt lat="46.88143" lon="4.73088">
        <ele>343</ele>
        <time>2024-04-07T08:58:18Z</time>
      </trkpt>
      <trkpt lat="46.88175" lon="4.73174">
        <ele>337</ele>
        <time>2024-04-07T08:59:48Z</time>
      </trkpt>
      <trkpt lat="46.88178" lon="4.73189">
        <ele>336</ele>
        <time>2024-04-07T09:00:02Z</time>
      </trkpt>
      <trkpt lat="46.88178" lon="4.73236">
        <ele>331</ele>
        <time>2024-04-07T09:00:45Z</time>
      </trkpt>
      <trkpt lat="46.88201" lon="4.7331">
        <ele>327</ele>
        <time>2024-04-07T09:01:59Z</time>
      </trkpt>
      <trkpt lat="46.88211" lon="4.7332">
        <ele>327</ele>
        <time>2024-04-07T09:02:15Z</time>
      </trkpt>
      <trkpt lat="46.88264" lon="4.73432">
        <ele>317</ele>
        <time>2024-04-07T09:04:19Z</time>
      </trkpt>
      <trkpt lat="46.88276" lon="4.73466">
        <ele>315</ele>
        <time>2024-04-07T09:04:54Z</time>
      </trkpt>
      <trkpt lat="46.88307" lon="4.73439">
        <ele>320</ele>
        <time>2024-04-07T09:05:42Z</time>
      </trkpt>
      <trkpt lat="46.88344" lon="4.73427">
        <ele>323</ele>
        <time>2024-04-07T09:06:33Z</time>
      </trkpt>
      <trkpt lat="46.88388" lon="4.73405">
        <ele>327</ele>
        <time>2024-04-07T09:07:35Z</time>
      </trkpt>
      <trkpt lat="46.88419" lon="4.73349">
        <ele>334</ele>
        <time>2024-04-07T09:08:41Z</time>
      </trkpt>
      <trkpt lat="46.88464" lon="4.73316">
        <ele>336</ele>
        <time>2024-04-07T09:09:48Z</time>
      </trkpt>
      <trkpt lat="46.88486" lon="4.73312">
        <ele>336</ele>
        <time>2024-04-07T09:10:17Z</time>
      </trkpt>
      <trkpt lat="46.8855" lon="4.73261">
        <ele>336</ele>
        <time>2024-04-07T09:11:55Z</time>
      </trkpt>
      <trkpt lat="46.88586" lon="4.73223">
        <ele>335</ele>
        <time>2024-04-07T09:12:54Z</time>
      </trkpt>
      <trkpt lat="46.88609" lon="4.73181">
        <ele>335</ele>
        <time>2024-04-07T09:13:43Z</time>
      </trkpt>
      <trkpt lat="46.8863" lon="4.73136">
        <ele>334</ele>
        <time>2024-04-07T09:14:33Z</time>
      </trkpt>
      <trkpt lat="46.88633" lon="4.73116">
        <ele>334</ele>
        <time>2024-04-07T09:14:51Z</time>
      </trkpt>
      <trkpt lat="46.88648" lon="4.73064">
        <ele>333</ele>
        <time>2024-04-07T09:15:43Z</time>
      </trkpt>
      <trkpt lat="46.88655" lon="4.73027">
        <ele>333</ele>
        <time>2024-04-07T09:16:18Z</time>
      </trkpt>
      <trkpt lat="46.88689" lon="4.72909">
        <ele>328</ele>
        <time>2024-04-07T09:18:15Z</time>
      </trkpt>
      <trkpt lat="46.88699" lon="4.72858">
        <ele>326</ele>
        <time>2024-04-07T09:19:03Z</time>
      </trkpt>
      <trkpt lat="46.88696" lon="4.72831">
        <ele>326</ele>
        <time>2024-04-07T09:19:28Z</time>
      </trkpt>
      <trkpt lat="46.88708" lon="4.72796">
        <ele>324</ele>
        <time>2024-04-07T09:20:04Z</time>
      </trkpt>
      <trkpt lat="46.88743" lon="4.72736">
        <ele>317</ele>
        <time>2024-04-07T09:21:16Z</time>
      </trkpt>
      <trkpt lat="46.88754" lon="4.72732">
        <ele>316</ele>
        <time>2024-04-07T09:21:31Z</time>
      </trkpt>
      <trkpt lat="46.88814" lon="4.72729">
        <ele>307</ele>
        <time>2024-04-07T09:22:51Z</time>
      </trkpt>
      <trkpt lat="46.88836" lon="4.72743">
        <ele>303</ele>
        <time>2024-04-07T09:23:23Z</time>
      </trkpt>
      <trkpt lat="46.8886" lon="4.72745">
        <ele>299</ele>
        <time>2024-04-07T09:23:55Z</time>
      </trkpt>
      <trkpt lat="46.88875" lon="4.72727">
        <ele>296</ele>
        <time>2024-04-07T09:24:21Z</time>
      </trkpt>
      <trkpt lat="46.88922" lon="4.72693">
        <ele>286</ele>
        <time>2024-04-07T09:25:31Z</time>
      </trkpt>
      <trkpt lat="46.88924" lon="4.72698">
        <ele>286</ele>
        <time>2024-04-07T09:25:36Z</time>
      </trkpt>
      <trkpt lat="46.88943" lon="4.72689">
        <ele>282</ele>
        <time>2024-04-07T09:26:03Z</time>
      </trkpt>
      <trkpt lat="46.8894" lon="4.72674">
        <ele>282</ele>
        <time>2024-04-07T09:26:17Z</time>
      </trkpt>
      <trkpt lat="46.88961" lon="4.72645">
        <ele>277</ele>
        <time>2024-04-07T09:26:56Z</time>
      </trkpt>
      <trkpt lat="46.88984" lon="4.72679">
        <ele>274</ele>
        <time>2024-04-07T09:27:39Z</time>
      </trkpt>
      <trkpt lat="46.88993" lon="4.7266">
        <ele>272</ele>
        <time>2024-04-07T09:28:00Z</time>
      </trkpt>
      <trkpt lat="46.89007" lon="4.72615">
        <ele>269</ele>
        <time>2024-04-07T09:28:45Z</time>
      </trkpt>
      <trkpt lat="46.89023" lon="4.72544">
        <ele>265</ele>
        <time>2024-04-07T09:29:54Z</time>
      </trkpt>
      <trkpt lat="46.89041" lon="4.72481">
        <ele>262</ele>
        <time>2024-04-07T09:30:56Z</time>
      </trkpt>
      <trkpt lat="46.89057" lon="4.72452">
        <ele>260</ele>
        <time>2024-04-07T09:31:30Z</time>
      </trkpt>
      <trkpt lat="46.89076" lon="4.72445">
        <ele>258</ele>
        <time>2024-04-07T09:31:56Z</time>
      </trkpt>
      <trkpt lat="46.89083" lon="4.72438">
        <ele>258</ele>
        <time>2024-04-07T09:32:07Z</time>
      </trkpt>
      <trkpt lat="46.89113" lon="4.72445">
        <ele>256</ele>
        <time>2024-04-07T09:32:48Z</time>
      </trkpt>
      <trkpt lat="46.89135" lon="4.72423">
        <ele>254</ele>
        <time>2024-04-07T09:33:23Z</time>
      </trkpt>
      <trkpt lat="46.89164" lon="4.72349">
        <ele>254</ele>
        <time>2024-04-07T09:34:41Z</time>
      </trkpt>
      <trkpt lat="46.89211" lon="4.72213">
        <ele>272</ele>
        <time>2024-04-07T09:37:00Z</time>
      </trkpt>
      <trkpt lat="46.8921" lon="4.72208">
        <ele>273</ele>
        <time>2024-04-07T09:37:05Z</time>
      </trkpt>
      <trkpt lat="46.89218" lon="4.72195">
        <ele>277</ele>
        <time>2024-04-07T09:37:21Z</time>
      </trkpt>
      <trkpt lat="46.89224" lon="4.72191">
        <ele>278</ele>
        <time>2024-04-07T09:37:30Z</time>
      </trkpt>
      <trkpt lat="46.89254" lon="4.72191">
        <ele>282</ele>
        <time>2024-04-07T09:38:10Z</time>
      </trkpt>
      <trkpt lat="46.89325" lon="4.72224">
        <ele>290</ele>
        <time>2024-04-07T09:39:49Z</time>
      </trkpt>
      <trkpt lat="46.89346" lon="4.72226">
        <ele>294</ele>
        <time>2024-04-07T09:40:17Z</time>
      </trkpt>
      <trkpt lat="46.89395" lon="4.72236">
        <ele>301</ele>
        <time>2024-04-07T09:41:23Z</time>
      </trkpt>
      <trkpt lat="46.89431" lon="4.72215">
        <ele>312</ele>
        <time>2024-04-07T09:42:15Z</time>
      </trkpt>
      <trkpt lat="46.89461" lon="4.72229">
        <ele>315</ele>
        <time>2024-04-07T09:42:57Z</time>
      </trkpt>
      <trkpt lat="46.89474" lon="4.72232">
        <ele>316</ele>
        <time>2024-04-07T09:43:15Z</time>
      </trkpt>
      <trkpt lat="46.89507" lon="4.72234">
        <ele>321</ele>
        <time>2024-04-07T09:43:59Z</time>
      </trkpt>
      <trkpt lat="46.89552" lon="4.72255">
        <ele>323</ele>
        <time>2024-04-07T09:45:02Z</time>
      </trkpt>
      <trkpt lat="46.89564" lon="4.7222">
        <ele>328</ele>
        <time>2024-04-07T09:45:37Z</time>
      </trkpt>
      <trkpt lat="46.89575" lon="4.72198">
        <ele>331</ele>
        <time>2024-04-07T09:46:02Z</time>
      </trkpt>
      <trkpt lat="46.89575" lon="4.72189">
        <ele>332</ele>
        <time>2024-04-07T09:46:10Z</time>
      </trkpt>
      <trkpt lat="46.89561" lon="4.72161">
        <ele>333</ele>
        <time>2024-04-07T09:46:42Z</time>
      </trkpt>
      <trkpt lat="46.89559" lon="4.72147">
        <ele>334</ele>
        <time>2024-04-07T09:46:55Z</time>
      </trkpt>
      <trkpt lat="46.89563" lon="4.7212">
        <ele>337</ele>
        <time>2024-04-07T09:47:20Z</time>
      </trkpt>
      <trkpt lat="46.89578" lon="4.72074">
        <ele>341</ele>
        <time>2024-04-07T09:48:07Z</time>
      </trkpt>
      <trkpt lat="46.8958" lon="4.7206">
        <ele>341</ele>
        <time>2024-04-07T09:48:20Z</time>
      </trkpt>
      <trkpt lat="46.89591" lon="4.72038">
        <ele>341</ele>
        <time>2024-04-07T09:48:45Z</time>
      </trkpt>
      <trkpt lat="46.89595" lon="4.72011">
        <ele>340</ele>
        <time>2024-04-07T09:49:10Z</time>
      </trkpt>
      <trkpt lat="46.89626" lon="4.72">
        <ele>338</ele>
        <time>2024-04-07T09:49:52Z</time>
      </trkpt>
      <trkpt lat="46.89645" lon="4.7201">
        <ele>338</ele>
        <time>2024-04-07T09:50:19Z</time>
      </trkpt>
      <trkpt lat="46.8968" lon="4.72023">
        <ele>335</ele>
        <time>2024-04-07T09:51:08Z</time>
      </trkpt>
      <trkpt lat="46.89696" lon="4.72038">
        <ele>333</ele>
        <time>2024-04-07T09:51:33Z</time>
      </trkpt>
      <trkpt lat="46.89703" lon="4.72058">
        <ele>334</ele>
        <time>2024-04-07T09:51:53Z</time>
      </trkpt>
      <trkpt lat="46.89716" lon="4.7207">
        <ele>333</ele>
        <time>2024-04-07T09:52:14Z</time>
      </trkpt>
      <trkpt lat="46.89737" lon="4.72084">
        <ele>332</ele>
        <time>2024-04-07T09:52:45Z</time>
      </trkpt>
      <trkpt lat="46.89751" lon="4.72086">
        <ele>330</ele>
        <time>2024-04-07T09:53:03Z</time>
      </trkpt>
      <trkpt lat="46.89748" lon="4.72072">
        <ele>329</ele>
        <time>2024-04-07T09:53:17Z</time>
      </trkpt>
      <trkpt lat="46.89739" lon="4.72058">
        <ele>328</ele>
        <time>2024-04-07T09:53:34Z</time>
      </trkpt>
      <trkpt lat="46.89721" lon="4.71977">
        <ele>321</ele>
        <time>2024-04-07T09:54:52Z</time>
      </trkpt>
      <trkpt lat="46.89715" lon="4.71935">
        <ele>316</ele>
        <time>2024-04-07T09:55:31Z</time>
      </trkpt>
      <trkpt lat="46.89731" lon="4.71884">
        <ele>308</ele>
        <time>2024-04-07T09:56:22Z</time>
      </trkpt>
      <trkpt lat="46.89748" lon="4.71866">
        <ele>305</ele>
        <time>2024-04-07T09:56:50Z</time>
      </trkpt>
      <trkpt lat="46.89766" lon="4.71836">
        <ele>300</ele>
        <time>2024-04-07T09:57:27Z</time>
      </trkpt>
      <trkpt lat="46.89783" lon="4.71765">
        <ele>293</ele>
        <time>2024-04-07T09:58:35Z</time>
      </trkpt>
      <trkpt lat="46.89785" lon="4.71743">
        <ele>290</ele>
        <time>2024-04-07T09:58:56Z</time>
      </trkpt>
      <trkpt lat="46.89781" lon="4.71723">
        <ele>287</ele>
        <time>2024-04-07T09:59:15Z</time>
      </trkpt>
      <trkpt lat="46.89789" lon="4.71677">
        <ele>277</ele>
        <time>2024-04-07T09:59:58Z</time>
      </trkpt>
      <trkpt lat="46.89782" lon="4.71584">
        <ele>271</ele>
        <time>2024-04-07T10:01:23Z</time>
      </trkpt>
      <trkpt lat="46.89786" lon="4.71567">
        <ele>269</ele>
        <time>2024-04-07T10:01:40Z</time>
      </trkpt>
      <trkpt lat="46.89792" lon="4.71557">
        <ele>268</ele>
        <time>2024-04-07T10:01:52Z</time>
      </trkpt>
      <trkpt lat="46.8979" lon="4.7154">
        <ele>267</ele>
        <time>2024-04-07T10:02:07Z</time>
      </trkpt>
      <trkpt lat="46.89775" lon="4.71493">
        <ele>266</ele>
        <time>2024-04-07T10:02:55Z</time>
      </trkpt>
      <trkpt lat="46.89692" lon="4.71356">
        <ele>259</ele>
        <time>2024-04-07T10:05:42Z</time>
      </trkpt>
      <trkpt lat="46.89677" lon="4.71298">
        <ele>252</ele>
        <time>2024-04-07T10:06:38Z</time>
      </trkpt>
      <trkpt lat="46.89621" lon="4.71116">
        <ele>239</ele>
        <time>2024-04-07T10:09:40Z</time>
      </trkpt>
      <trkpt lat="46.89623" lon="4.71098">
        <ele>237</ele>
        <time>2024-04-07T10:09:57Z</time>
      </trkpt>
      <trkpt lat="46.89642" lon="4.71046">
        <ele>234</ele>
        <time>2024-04-07T10:10:51Z</time>
      </trkpt>
      <trkpt lat="46.89662" lon="4.70929">
        <ele>234</ele>
        <time>2024-04-07T10:12:41Z</time>
      </trkpt>
      <trkpt lat="46.89686" lon="4.70846">
        <ele>237</ele>
        <time>2024-04-07T10:14:03Z</time>
      </trkpt>
      <trkpt lat="46.89694" lon="4.70825">
        <ele>238</ele>
        <time>2024-04-07T10:14:25Z</time>
      </trkpt>
      <trkpt lat="46.89717" lon="4.70796">
        <ele>239</ele>
        <time>2024-04-07T10:15:05Z</time>
      </trkpt>
      <trkpt lat="46.89767" lon="4.70709">
        <ele>244</ele>
        <time>2024-04-07T10:16:49Z</time>
      </trkpt>
      <trkpt lat="46.89779" lon="4.70683">
        <ele>246</ele>
        <time>2024-04-07T10:17:18Z</time>
      </trkpt>
      <trkpt lat="46.8979" lon="4.70637">
        <ele>248</ele>
        <time>2024-04-07T10:18:02Z</time>
      </trkpt>
      <trkpt lat="46.89804" lon="4.7061">
        <ele>250</ele>
        <time>2024-04-07T10:18:33Z</time>
      </trkpt>
      <trkpt lat="46.89809" lon="4.70608">
        <ele>250</ele>
        <time>2024-04-07T10:18:40Z</time>
      </trkpt>
      <trkpt lat="46.89823" lon="4.70611">
        <ele>251</ele>
        <time>2024-04-07T10:18:59Z</time>
      </trkpt>
      <trkpt lat="46.89864" lon="4.70627">
        <ele>254</ele>
        <time>2024-04-07T10:19:55Z</time>
      </trkpt>
      <trkpt lat="46.89922" lon="4.70634">
        <ele>259</ele>
        <time>2024-04-07T10:21:13Z</time>
      </trkpt>
      <trkpt lat="46.89948" lon="4.7064">
        <ele>261</ele>
        <time>2024-04-07T10:21:48Z</time>
      </trkpt>
      <trkpt lat="46.89961" lon="4.7064">
        <ele>261</ele>
        <time>2024-04-07T10:22:05Z</time>
      </trkpt>
      <trkpt lat="46.89965" lon="4.70632">
        <ele>262</ele>
        <time>2024-04-07T10:22:14Z</time>
      </trkpt>
      <trkpt lat="46.8998" lon="4.70569">
        <ele>268</ele>
        <time>2024-04-07T10:23:15Z</time>
      </trkpt>
      <trkpt lat="46.90012" lon="4.70485">
        <ele>275</ele>
        <time>2024-04-07T10:24:43Z</time>
      </trkpt>
      <trkpt lat="46.9002" lon="4.70453">
        <ele>276</ele>
        <time>2024-04-07T10:25:14Z</time>
      </trkpt>
      <trkpt lat="46.90026" lon="4.70414">
        <ele>278</ele>
        <time>2024-04-07T10:25:50Z</time>
      </trkpt>
      <trkpt lat="46.9006" lon="4.7031">
        <ele>278</ele>
        <time>2024-04-07T10:27:36Z</time>
      </trkpt>
      <trkpt lat="46.90084" lon="4.70226">
        <ele>276</ele>
        <time>2024-04-07T10:28:59Z</time>
      </trkpt>
      <trkpt lat="46.90007" lon="4.70195">
        <ele>285</ele>
        <time>2024-04-07T10:30:45Z</time>
      </trkpt>
      <trkpt lat="46.89998" lon="4.70189">
        <ele>287</ele>
        <time>2024-04-07T10:30:58Z</time>
      </trkpt>
      <trkpt lat="46.89988" lon="4.70178">
        <ele>288</ele>
        <time>2024-04-07T10:31:15Z</time>
      </trkpt>
      <trkpt lat="46.89971" lon="4.70151">
        <ele>291</ele>
        <time>2024-04-07T10:31:49Z</time>
      </trkpt>
      <trkpt lat="46.89964" lon="4.70135">
        <ele>293</ele>
        <time>2024-04-07T10:32:06Z</time>
      </trkpt>
      <trkpt lat="46.8993" lon="4.70041">
        <ele>301</ele>
        <time>2024-04-07T10:33:43Z</time>
      </trkpt>
      <trkpt lat="46.89922" lon="4.69983">
        <ele>304</ele>
        <time>2024-04-07T10:34:37Z</time>
      </trkpt>
      <trkpt lat="46.89866" lon="4.69916">
        <ele>312</ele>
        <time>2024-04-07T10:36:13Z</time>
      </trkpt>
      <trkpt lat="46.89831" lon="4.6988">
        <ele>316</ele>
        <time>2024-04-07T10:37:10Z</time>
      </trkpt>
      <trkpt lat="46.89815" lon="4.69851">
        <ele>317</ele>
        <time>2024-04-07T10:37:44Z</time>
      </trkpt>
      <trkpt lat="46.89807" lon="4.69845">
        <ele>317</ele>
        <time>2024-04-07T10:37:56Z</time>
      </trkpt>
      <trkpt lat="46.89764" lon="4.69843">
        <ele>322</ele>
        <time>2024-04-07T10:38:54Z</time>
      </trkpt>
      <trkpt lat="46.89718" lon="4.69833">
        <ele>328</ele>
        <time>2024-04-07T10:39:56Z</time>
      </trkpt>
      <trkpt lat="46.89644" lon="4.69827">
        <ele>336</ele>
        <time>2024-04-07T10:41:35Z</time>
      </trkpt>
      <trkpt lat="46.8962" lon="4.69823">
        <ele>337</ele>
        <time>2024-04-07T10:42:07Z</time>
      </trkpt>
      <trkpt lat="46.89535" lon="4.69788">
        <ele>342</ele>
        <time>2024-04-07T10:44:05Z</time>
      </trkpt>
      <trkpt lat="46.89465" lon="4.69787">
        <ele>348</ele>
        <time>2024-04-07T10:45:38Z</time>
      </trkpt>
      <trkpt lat="46.89428" lon="4.69791">
        <ele>350</ele>
        <time>2024-04-07T10:46:28Z</time>
      </trkpt>
      <trkpt lat="46.89412" lon="4.69789">
        <ele>351</ele>
        <time>2024-04-07T10:46:49Z</time>
      </trkpt>
      <trkpt lat="46.89387" lon="4.69781">
        <ele>353</ele>
        <time>2024-04-07T10:47:23Z</time>
      </trkpt>
      <trkpt lat="46.89362" lon="4.69777">
        <ele>354</ele>
        <time>2024-04-07T10:47:57Z</time>
      </trkpt>
      <trkpt lat="46.89314" lon="4.69751">
        <ele>358</ele>
        <time>2024-04-07T10:49:05Z</time>
      </trkpt>
      <trkpt lat="46.89264" lon="4.69736">
        <ele>361</ele>
        <time>2024-04-07T10:50:13Z</time>
      </trkpt>
      <trkpt lat="46.89251" lon="4.69736">
        <ele>362</ele>
        <time>2024-04-07T10:50:31Z</time>
      </trkpt>
      <trkpt lat="46.89225" lon="4.69751">
        <ele>362</ele>
        <time>2024-04-07T10:51:08Z</time>
      </trkpt>
      <trkpt lat="46.89223" lon="4.69745">
        <ele>363</ele>
        <time>2024-04-07T10:51:14Z</time>
      </trkpt>
      <trkpt lat="46.89217" lon="4.69741">
        <ele>364</ele>
        <time>2024-04-07T10:51:23Z</time>
      </trkpt>
      <trkpt lat="46.89132" lon="4.69711">
        <ele>370</ele>
        <time>2024-04-07T10:53:20Z</time>
      </trkpt>
      <trkpt lat="46.89073" lon="4.69674">
        <ele>376</ele>
        <time>2024-04-07T10:54:45Z</time>
      </trkpt>
      <trkpt lat="46.89047" lon="4.69653">
        <ele>378</ele>
        <time>2024-04-07T10:55:25Z</time>
      </trkpt>
      <trkpt lat="46.88937" lon="4.69575">
        <ele>385</ele>
        <time>2024-04-07T10:58:08Z</time>
      </trkpt>
      <trkpt lat="46.88906" lon="4.69559">
        <ele>386</ele>
        <time>2024-04-07T10:58:52Z</time>
      </trkpt>
      <trkpt lat="46.88878" lon="4.69515">
        <ele>389</ele>
        <time>2024-04-07T10:59:47Z</time>
      </trkpt>
      <trkpt lat="46.88812" lon="4.69453">
        <ele>392</ele>
        <time>2024-04-07T11:01:31Z</time>
      </trkpt>
      <trkpt lat="46.888" lon="4.69437">
        <ele>393</ele>
        <time>2024-04-07T11:01:53Z</time>
      </trkpt>
      <trkpt lat="46.88767" lon="4.69373">
        <ele>398</ele>
        <time>2024-04-07T11:03:06Z</time>
      </trkpt>
      <trkpt lat="46.88717" lon="4.69251">
        <ele>404</ele>
        <time>2024-04-07T11:05:16Z</time>
      </trkpt>
      <trkpt lat="46.88689" lon="4.69197">
        <ele>403</ele>
        <time>2024-04-07T11:06:18Z</time>
      </trkpt>
      <trkpt lat="46.88686" lon="4.69185">
        <ele>403</ele>
        <time>2024-04-07T11:06:29Z</time>
      </trkpt>
      <trkpt lat="46.88688" lon="4.69165">
        <ele>402</ele>
        <time>2024-04-07T11:06:48Z</time>
      </trkpt>
      <trkpt lat="46.88694" lon="4.69141">
        <ele>397</ele>
        <time>2024-04-07T11:07:11Z</time>
      </trkpt>
      <trkpt lat="46.8869" lon="4.69129">
        <ele>395</ele>
        <time>2024-04-07T11:07:23Z</time>
      </trkpt>
      <trkpt lat="46.88666" lon="4.69108">
        <ele>396</ele>
        <time>2024-04-07T11:08:01Z</time>
      </trkpt>
      <trkpt lat="46.88638" lon="4.69097">
        <ele>398</ele>
        <time>2024-04-07T11:08:39Z</time>
      </trkpt>
      <trkpt lat="46.88612" lon="4.69077">
        <ele>400</ele>
        <time>2024-04-07T11:09:18Z</time>
      </trkpt>
      <trkpt lat="46.886" lon="4.69074">
        <ele>401</ele>
        <time>2024-04-07T11:09:35Z</time>
      </trkpt>
      <trkpt lat="46.88587" lon="4.69064">
        <ele>402</ele>
        <time>2024-04-07T11:09:54Z</time>
      </trkpt>
      <trkpt lat="46.88564" lon="4.69055">
        <ele>405</ele>
        <time>2024-04-07T11:10:26Z</time>
      </trkpt>
      <trkpt lat="46.88542" lon="4.69054">
        <ele>408</ele>
        <time>2024-04-07T11:10:55Z</time>
      </trkpt>
      <trkpt lat="46.88509" lon="4.69031">
        <ele>413</ele>
        <time>2024-04-07T11:11:44Z</time>
      </trkpt>
      <trkpt lat="46.8848" lon="4.69002">
        <ele>417</ele>
        <time>2024-04-07T11:12:31Z</time>
      </trkpt>
      <trkpt lat="46.88453" lon="4.68968">
        <ele>417</ele>
        <time>2024-04-07T11:13:19Z</time>
      </trkpt>
      <trkpt lat="46.88414" lon="4.68939">
        <ele>422</ele>
        <time>2024-04-07T11:14:17Z</time>
      </trkpt>
      <trkpt lat="46.88388" lon="4.68926">
        <ele>424</ele>
        <time>2024-04-07T11:14:54Z</time>
      </trkpt>
      <trkpt lat="46.88373" lon="4.68926">
        <ele>425</ele>
        <time>2024-04-07T11:15:14Z</time>
      </trkpt>
      <trkpt lat="46.88377" lon="4.68888">
        <ele>421</ele>
        <time>2024-04-07T11:15:49Z</time>
      </trkpt>
      <trkpt lat="46.88374" lon="4.68876">
        <ele>419</ele>
        <time>2024-04-07T11:16:00Z</time>
      </trkpt>
      <trkpt lat="46.8835" lon="4.68849">
        <ele>421</ele>
        <time>2024-04-07T11:16:41Z</time>
      </trkpt>
      <trkpt lat="46.88242" lon="4.68747">
        <ele>422</ele>
        <time>2024-04-07T11:19:32Z</time>
      </trkpt>
      <trkpt lat="46.88232" lon="4.68741">
        <ele>422</ele>
        <time>2024-04-07T11:19:47Z</time>
      </trkpt>
      <trkpt lat="46.88213" lon="4.68715">
        <ele>420</ele>
        <time>2024-04-07T11:20:21Z</time>
      </trkpt>
      <trkpt lat="46.88179" lon="4.68676">
        <ele>422</ele>
        <time>2024-04-07T11:21:19Z</time>
      </trkpt>
      <trkpt lat="46.88125" lon="4.68641">
        <ele>422</ele>
        <time>2024-04-07T11:22:38Z</time>
      </trkpt>
      <trkpt lat="46.88075" lon="4.68618">
        <ele>422</ele>
        <time>2024-04-07T11:23:48Z</time>
      </trkpt>
      <trkpt lat="46.88059" lon="4.68601">
        <ele>422</ele>
        <time>2024-04-07T11:24:14Z</time>
      </trkpt>
      <trkpt lat="46.88032" lon="4.68584">
        <ele>424</ele>
        <time>2024-04-07T11:24:54Z</time>
      </trkpt>
      <trkpt lat="46.88011" lon="4.68579">
        <ele>426</ele>
        <time>2024-04-07T11:25:22Z</time>
      </trkpt>
      <trkpt lat="46.88" lon="4.68571">
        <ele>426</ele>
        <time>2024-04-07T11:25:38Z</time>
      </trkpt>
      <trkpt lat="46.87965" lon="4.68554">
        <ele>423</ele>
        <time>2024-04-07T11:26:27Z</time>
      </trkpt>
      <trkpt lat="46.87947" lon="4.68541">
        <ele>423</ele>
        <time>2024-04-07T11:26:54Z</time>
      </trkpt>
      <trkpt lat="46.87927" lon="4.68522">
        <ele>424</ele>
        <time>2024-04-07T11:27:26Z</time>
      </trkpt>
      <trkpt lat="46.87916" lon="4.68521">
        <ele>424</ele>
        <time>2024-04-07T11:27:41Z</time>
      </trkpt>
      <trkpt lat="46.87901" lon="4.6851">
        <ele>424</ele>
        <time>2024-04-07T11:28:03Z</time>
      </trkpt>
      <trkpt lat="46.87868" lon="4.68477">
        <ele>424</ele>
        <time>2024-04-07T11:28:57Z</time>
      </trkpt>
      <trkpt lat="46.87832" lon="4.68454">
        <ele>424</ele>
        <time>2024-04-07T11:29:49Z</time>
      </trkpt>
      <trkpt lat="46.878" lon="4.68439">
        <ele>423</ele>
        <time>2024-04-07T11:30:34Z</time>
      </trkpt>
      <trkpt lat="46.87774" lon="4.68434">
        <ele>421</ele>
        <time>2024-04-07T11:31:09Z</time>
      </trkpt>
      <trkpt lat="46.87725" lon="4.68412">
        <ele>420</ele>
        <time>2024-04-07T11:32:17Z</time>
      </trkpt>
      <trkpt lat="46.87694" lon="4.68397">
        <ele>420</ele>
        <time>2024-04-07T11:33:01Z</time>
      </trkpt>
      <trkpt lat="46.87667" lon="4.68378">
        <ele>421</ele>
        <time>2024-04-07T11:33:41Z</time>
      </trkpt>
      <trkpt lat="46.87651" lon="4.68371">
        <ele>420</ele>
        <time>2024-04-07T11:34:03Z</time>
      </trkpt>
      <trkpt lat="46.87616" lon="4.68374">
        <ele>415</ele>
        <time>2024-04-07T11:34:50Z</time>
      </trkpt>
      <trkpt lat="46.87598" lon="4.68368">
        <ele>413</ele>
        <time>2024-04-07T11:35:14Z</time>
      </trkpt>
      <trkpt lat="46.87542" lon="4.68364">
        <ele>404</ele>
        <time>2024-04-07T11:36:29Z</time>
      </trkpt>
      <trkpt lat="46.87525" lon="4.68366">
        <ele>401</ele>
        <time>2024-04-07T11:36:52Z</time>
      </trkpt>
      <trkpt lat="46.87512" lon="4.68361">
        <ele>399</ele>
        <time>2024-04-07T11:37:10Z</time>
      </trkpt>
      <trkpt lat="46.87511" lon="4.68365">
        <ele>399</ele>
        <time>2024-04-07T11:37:14Z</time>
      </trkpt>
      <trkpt lat="46.87506" lon="4.68369">
        <ele>398</ele>
        <time>2024-04-07T11:37:21Z</time>
      </trkpt>
      <trkpt lat="46.87461" lon="4.68377">
        <ele>389</ele>
        <time>2024-04-07T11:38:22Z</time>
      </trkpt>
      <trkpt lat="46.87416" lon="4.68371">
        <ele>382</ele>
        <time>2024-04-07T11:39:22Z</time>
      </trkpt>
      <trkpt lat="46.87352" lon="4.68416">
        <ele>369</ele>
        <time>2024-04-07T11:40:57Z</time>
      </trkpt>
      <trkpt lat="46.87295" lon="4.68411">
        <ele>363</ele>
        <time>2024-04-07T11:42:13Z</time>
      </trkpt>
      <trkpt lat="46.87266" lon="4.68415">
        <ele>360</ele>
        <time>2024-04-07T11:42:52Z</time>
      </trkpt>
      <trkpt lat="46.87221" lon="4.68409">
        <ele>355</ele>
        <time>2024-04-07T11:43:52Z</time>
      </trkpt>
      <trkpt lat="46.87193" lon="4.68392">
        <ele>353</ele>
        <time>2024-04-07T11:44:33Z</time>
      </trkpt>
      <trkpt lat="46.87181" lon="4.68396">
        <ele>351</ele>
        <time>2024-04-07T11:44:49Z</time>
      </trkpt>
      <trkpt lat="46.87125" lon="4.68427">
        <ele>342</ele>
        <time>2024-04-07T11:46:09Z</time>
      </trkpt>
      <trkpt lat="46.8701" lon="4.68464">
        <ele>327</ele>
        <time>2024-04-07T11:48:46Z</time>
      </trkpt>
      <trkpt lat="46.86905" lon="4.68467">
        <ele>321</ele>
        <time>2024-04-07T11:51:06Z</time>
      </trkpt>
      <trkpt lat="46.86858" lon="4.68472">
        <ele>322</ele>
        <time>2024-04-07T11:52:09Z</time>
      </trkpt>
      <trkpt lat="46.86829" lon="4.68468">
        <ele>323</ele>
        <time>2024-04-07T11:52:48Z</time>
      </trkpt>
      <trkpt lat="46.86819" lon="4.68474">
        <ele>323</ele>
        <time>2024-04-07T11:53:03Z</time>
      </trkpt>
      <trkpt lat="46.86802" lon="4.68474">
        <ele>323</ele>
        <time>2024-04-07T11:53:25Z</time>
      </trkpt>
      <trkpt lat="46.86733" lon="4.68442">
        <ele>325</ele>
        <time>2024-04-07T11:55:02Z</time>
      </trkpt>
      <trkpt lat="46.86704" lon="4.6842">
        <ele>326</ele>
        <time>2024-04-07T11:55:46Z</time>
      </trkpt>
      <trkpt lat="46.86674" lon="4.68564">
        <ele>319</ele>
        <time>2024-04-07T11:58:03Z</time>
      </trkpt>
      <trkpt lat="46.86665" lon="4.68636">
        <ele>317</ele>
        <time>2024-04-07T11:59:10Z</time>
      </trkpt>
      <trkpt lat="46.86659" lon="4.68741">
        <ele>322</ele>
        <time>2024-04-07T12:00:46Z</time>
      </trkpt>
      <trkpt lat="46.86668" lon="4.68776">
        <ele>326</ele>
        <time>2024-04-07T12:01:20Z</time>
      </trkpt>
      <trkpt lat="46.86662" lon="4.68792">
        <ele>328</ele>
        <time>2024-04-07T12:01:37Z</time>
      </trkpt>
      <trkpt lat="46.86648" lon="4.68798">
        <ele>330</ele>
        <time>2024-04-07T12:01:56Z</time>
      </trkpt>
      <trkpt lat="46.86626" lon="4.688">
        <ele>332</ele>
        <time>2024-04-07T12:02:25Z</time>
      </trkpt>
      <trkpt lat="46.86579" lon="4.68787">
        <ele>334</ele>
        <time>2024-04-07T12:03:29Z</time>
      </trkpt>
      <trkpt lat="46.86524" lon="4.68788">
        <ele>339</ele>
        <time>2024-04-07T12:04:43Z</time>
      </trkpt>
      <trkpt lat="46.86496" lon="4.68794">
        <ele>343</ele>
        <time>2024-04-07T12:05:20Z</time>
      </trkpt>
      <trkpt lat="46.86474" lon="4.68801">
        <ele>345</ele>
        <time>2024-04-07T12:05:50Z</time>
      </trkpt>
      <trkpt lat="46.86374" lon="4.68853">
        <ele>358</ele>
        <time>2024-04-07T12:08:12Z</time>
      </trkpt>
      <trkpt lat="46.86341" lon="4.68875">
        <ele>361</ele>
        <time>2024-04-07T12:09:00Z</time>
      </trkpt>
      <trkpt lat="46.86319" lon="4.689">
        <ele>364</ele>
        <time>2024-04-07T12:09:38Z</time>
      </trkpt>
      <trkpt lat="46.86291" lon="4.68942">
        <ele>367</ele>
        <time>2024-04-07T12:10:31Z</time>
      </trkpt>
      <trkpt lat="46.86275" lon="4.68972">
        <ele>369</ele>
        <time>2024-04-07T12:11:06Z</time>
      </trkpt>
      <trkpt lat="46.86265" lon="4.68997">
        <ele>371</ele>
        <time>2024-04-07T12:11:32Z</time>
      </trkpt>
      <trkpt lat="46.86253" lon="4.69015">
        <ele>372</ele>
        <time>2024-04-07T12:11:55Z</time>
      </trkpt>
      <trkpt lat="46.86239" lon="4.69031">
        <ele>372</ele>
        <time>2024-04-07T12:12:19Z</time>
      </trkpt>
      <trkpt lat="46.86191" lon="4.69068">
        <ele>371</ele>
        <time>2024-04-07T12:13:31Z</time>
      </trkpt>
      <trkpt lat="46.86171" lon="4.69101">
        <ele>372</ele>
        <time>2024-04-07T12:14:12Z</time>
      </trkpt>
      <trkpt lat="46.86165" lon="4.69123">
        <ele>372</ele>
        <time>2024-04-07T12:14:33Z</time>
      </trkpt>
      <trkpt lat="46.86168" lon="4.69144">
        <ele>373</ele>
        <time>2024-04-07T12:14:53Z</time>
      </trkpt>
      <trkpt lat="46.86166" lon="4.69154">
        <ele>374</ele>
        <time>2024-04-07T12:15:02Z</time>
      </trkpt>
      <trkpt lat="46.86155" lon="4.6917">
        <ele>374</ele>
        <time>2024-04-07T12:15:23Z</time>
      </trkpt>
      <trkpt lat="46.86143" lon="4.69194">
        <ele>376</ele>
        <time>2024-04-07T12:15:50Z</time>
      </trkpt>
      <trkpt lat="46.86096" lon="4.69262">
        <ele>379</ele>
        <time>2024-04-07T12:17:18Z</time>
      </trkpt>
      <trkpt lat="46.86078" lon="4.69299">
        <ele>381</ele>
        <time>2024-04-07T12:18:00Z</time>
      </trkpt>
      <trkpt lat="46.86066" lon="4.69318">
        <ele>382</ele>
        <time>2024-04-07T12:18:23Z</time>
      </trkpt>
      <trkpt lat="46.86018" lon="4.69326">
        <ele>383</ele>
        <time>2024-04-07T12:19:28Z</time>
      </trkpt>
      <trkpt lat="46.86007" lon="4.69339">
        <ele>384</ele>
        <time>2024-04-07T12:19:47Z</time>
      </trkpt>
      <trkpt lat="46.85976" lon="4.69314">
        <ele>384</ele>
        <time>2024-04-07T12:20:34Z</time>
      </trkpt>
      <trkpt lat="46.85866" lon="4.69243">
        <ele>388</ele>
        <time>2024-04-07T12:23:14Z</time>
      </trkpt>
      <trkpt lat="46.85814" lon="4.69213">
        <ele>391</ele>
        <time>2024-04-07T12:24:29Z</time>
      </trkpt>
      <trkpt lat="46.85772" lon="4.6918">
        <ele>394</ele>
        <time>2024-04-07T12:25:33Z</time>
      </trkpt>
      <trkpt lat="46.85725" lon="4.69155">
        <ele>396</ele>
        <time>2024-04-07T12:26:39Z</time>
      </trkpt>
      <trkpt lat="46.85694" lon="4.69142">
        <ele>396</ele>
        <time>2024-04-07T12:27:22Z</time>
      </trkpt>
      <trkpt lat="46.85614" lon="4.69091">
        <ele>398</ele>
        <time>2024-04-07T12:29:19Z</time>
      </trkpt>
      <trkpt lat="46.85511" lon="4.69068">
        <ele>398</ele>
        <time>2024-04-07T12:31:38Z</time>
      </trkpt>
      <trkpt lat="46.85414" lon="4.69029">
        <ele>399</ele>
        <time>2024-04-07T12:33:52Z</time>
      </trkpt>
      <trkpt lat="46.85284" lon="4.68967">
        <ele>396</ele>
        <time>2024-04-07T12:36:55Z</time>
      </trkpt>
      <trkpt lat="46.85224" lon="4.6893">
        <ele>394</ele>
        <time>2024-04-07T12:38:22Z</time>
      </trkpt>
      <trkpt lat="46.85187" lon="4.68901">
        <ele>394</ele>
        <time>2024-04-07T12:39:18Z</time>
      </trkpt>
      <trkpt lat="46.85168" lon="4.68893">
        <ele>393</ele>
        <time>2024-04-07T12:39:44Z</time>
      </trkpt>
      <trkpt lat="46.85136" lon="4.68869">
        <ele>392</ele>
        <time>2024-04-07T12:40:32Z</time>
      </trkpt>
      <trkpt lat="46.85123" lon="4.68847">
        <ele>391</ele>
        <time>2024-04-07T12:40:58Z</time>
      </trkpt>
      <trkpt lat="46.85119" lon="4.68782">
        <ele>391</ele>
        <time>2024-04-07T12:41:58Z</time>
      </trkpt>
      <trkpt lat="46.8512" lon="4.68691">
        <ele>386</ele>
        <time>2024-04-07T12:43:21Z</time>
      </trkpt>
      <trkpt lat="46.8511" lon="4.68674">
        <ele>385</ele>
        <time>2024-04-07T12:43:42Z</time>
      </trkpt>
      <trkpt lat="46.85076" lon="4.68669">
        <ele>385</ele>
        <time>2024-04-07T12:44:27Z</time>
      </trkpt>
      <trkpt lat="46.85035" lon="4.68679">
        <ele>385</ele>
        <time>2024-04-07T12:45:23Z</time>
      </trkpt>
      <trkpt lat="46.84945" lon="4.68687">
        <ele>384</ele>
        <time>2024-04-07T12:47:23Z</time>
      </trkpt>
      <trkpt lat="46.84918" lon="4.68677">
        <ele>384</ele>
        <time>2024-04-07T12:48:00Z</time>
      </trkpt>
      <trkpt lat="46.84892" lon="4.68643">
        <ele>382</ele>
        <time>2024-04-07T12:48:47Z</time>
      </trkpt>
      <trkpt lat="46.84878" lon="4.68634">
        <ele>382</ele>
        <time>2024-04-07T12:49:07Z</time>
      </trkpt>
      <trkpt lat="46.84823" lon="4.6861">
        <ele>383</ele>
        <time>2024-04-07T12:50:24Z</time>
      </trkpt>
      <trkpt lat="46.84759" lon="4.68571">
        <ele>382</ele>
        <time>2024-04-07T12:51:56Z</time>
      </trkpt>
      <trkpt lat="46.84741" lon="4.68604">
        <ele>381</ele>
        <time>2024-04-07T12:52:35Z</time>
      </trkpt>
      <trkpt lat="46.84743" lon="4.68615">
        <ele>381</ele>
        <time>2024-04-07T12:52:45Z</time>
      </trkpt>
      <trkpt lat="46.84731" lon="4.68622">
        <ele>380</ele>
        <time>2024-04-07T12:53:02Z</time>
      </trkpt>
      <trkpt lat="46.84714" lon="4.6865">
        <ele>376</ele>
        <time>2024-04-07T12:53:37Z</time>
      </trkpt>
      <trkpt lat="46.84706" lon="4.68648">
        <ele>375</ele>
        <time>2024-04-07T12:53:47Z</time>
      </trkpt>
      <trkpt lat="46.84691" lon="4.68661">
        <ele>373</ele>
        <time>2024-04-07T12:54:11Z</time>
      </trkpt>
      <trkpt lat="46.84691" lon="4.68674">
        <ele>372</ele>
        <time>2024-04-07T12:54:23Z</time>
      </trkpt>
      <trkpt lat="46.8468" lon="4.68722">
        <ele>370</ele>
        <time>2024-04-07T12:55:09Z</time>
      </trkpt>
      <trkpt lat="46.84675" lon="4.68759">
        <ele>368</ele>
        <time>2024-04-07T12:55:43Z</time>
      </trkpt>
      <trkpt lat="46.8467" lon="4.68771">
        <ele>366</ele>
        <time>2024-04-07T12:55:56Z</time>
      </trkpt>
      <trkpt lat="46.84661" lon="4.68784">
        <ele>364</ele>
        <time>2024-04-07T12:56:13Z</time>
      </trkpt>
      <trkpt lat="46.84604" lon="4.68916">
        <ele>343</ele>
        <time>2024-04-07T12:58:35Z</time>
      </trkpt>
      <trkpt lat="46.84592" lon="4.6893">
        <ele>341</ele>
        <time>2024-04-07T12:58:56Z</time>
      </trkpt>
      <trkpt lat="46.84605" lon="4.68961">
        <ele>338</ele>
        <time>2024-04-07T12:59:29Z</time>
      </trkpt>
      <trkpt lat="46.84623" lon="4.6903">
        <ele>330</ele>
        <time>2024-04-07T13:00:36Z</time>
      </trkpt>
      <trkpt lat="46.84624" lon="4.69051">
        <ele>328</ele>
        <time>2024-04-07T13:00:56Z</time>
      </trkpt>
      <trkpt lat="46.84613" lon="4.69072">
        <ele>326</ele>
        <time>2024-04-07T13:01:20Z</time>
      </trkpt>
      <trkpt lat="46.84545" lon="4.69121">
        <ele>319</ele>
        <time>2024-04-07T13:03:01Z</time>
      </trkpt>
      <trkpt lat="46.84514" lon="4.69117">
        <ele>317</ele>
        <time>2024-04-07T13:03:42Z</time>
      </trkpt>
      <trkpt lat="46.84476" lon="4.691">
        <ele>314</ele>
        <time>2024-04-07T13:04:35Z</time>
      </trkpt>
      <trkpt lat="46.84438" lon="4.69099">
        <ele>309</ele>
        <time>2024-04-07T13:05:26Z</time>
      </trkpt>
      <trkpt lat="46.84394" lon="4.69116">
        <ele>303</ele>
        <time>2024-04-07T13:06:27Z</time>
      </trkpt>
      <trkpt lat="46.84382" lon="4.69132">
        <ele>301</ele>
        <time>2024-04-07T13:06:49Z</time>
      </trkpt>
      <trkpt lat="46.84362" lon="4.69145">
        <ele>298</ele>
        <time>2024-04-07T13:07:18Z</time>
      </trkpt>
      <trkpt lat="46.84345" lon="4.69163">
        <ele>296</ele>
        <time>2024-04-07T13:07:46Z</time>
      </trkpt>
      <trkpt lat="46.84334" lon="4.6917">
        <ele>295</ele>
        <time>2024-04-07T13:08:02Z</time>
      </trkpt>
      <trkpt lat="46.84324" lon="4.69184">
        <ele>293</ele>
        <time>2024-04-07T13:08:20Z</time>
      </trkpt>
      <trkpt lat="46.84315" lon="4.69244">
        <ele>289</ele>
        <time>2024-04-07T13:09:16Z</time>
      </trkpt>
      <trkpt lat="46.84305" lon="4.69266">
        <ele>289</ele>
        <time>2024-04-07T13:09:40Z</time>
      </trkpt>
      <trkpt lat="46.84281" lon="4.69277">
        <ele>289</ele>
        <time>2024-04-07T13:10:14Z</time>
      </trkpt>
      <trkpt lat="46.84267" lon="4.69271">
        <ele>289</ele>
        <time>2024-04-07T13:10:34Z</time>
      </trkpt>
      <trkpt lat="46.84261" lon="4.69273">
        <ele>290</ele>
        <time>2024-04-07T13:10:42Z</time>
      </trkpt>
      <trkpt lat="46.84226" lon="4.69258">
        <ele>291</ele>
        <time>2024-04-07T13:11:30Z</time>
      </trkpt>
      <trkpt lat="46.84184" lon="4.69255">
        <ele>295</ele>
        <time>2024-04-07T13:12:27Z</time>
      </trkpt>
      <trkpt lat="46.84157" lon="4.69244">
        <ele>297</ele>
        <time>2024-04-07T13:13:04Z</time>
      </trkpt>
      <trkpt lat="46.84137" lon="4.6924">
        <ele>298</ele>
        <time>2024-04-07T13:13:31Z</time>
      </trkpt>
      <trkpt lat="46.84107" lon="4.69243">
        <ele>302</ele>
        <time>2024-04-07T13:14:11Z</time>
      </trkpt>
      <trkpt lat="46.84062" lon="4.69258">
        <ele>307</ele>
        <time>2024-04-07T13:15:13Z</time>
      </trkpt>
      <trkpt lat="46.8402" lon="4.69258">
        <ele>312</ele>
        <time>2024-04-07T13:16:09Z</time>
      </trkpt>
      <trkpt lat="46.8394" lon="4.69286">
        <ele>321</ele>
        <time>2024-04-07T13:17:58Z</time>
      </trkpt>
      <trkpt lat="46.8377" lon="4.69468">
        <ele>320</ele>
        <time>2024-04-07T13:22:40Z</time>
      </trkpt>
      <trkpt lat="46.83728" lon="4.69533">
        <ele>314</ele>
        <time>2024-04-07T13:24:01Z</time>
      </trkpt>
      <trkpt lat="46.83717" lon="4.6956">
        <ele>311</ele>
        <time>2024-04-07T13:24:30Z</time>
      </trkpt>
      <trkpt lat="46.83706" lon="4.69604">
        <ele>306</ele>
        <time>2024-04-07T13:25:13Z</time>
      </trkpt>
      <trkpt lat="46.83697" lon="4.69629">
        <ele>304</ele>
        <time>2024-04-07T13:25:38Z</time>
      </trkpt>
      <trkpt lat="46.83658" lon="4.69676">
        <ele>293</ele>
        <time>2024-04-07T13:26:46Z</time>
      </trkpt>
      <trkpt lat="46.83612" lon="4.69749">
        <ele>283</ele>
        <time>2024-04-07T13:28:17Z</time>
      </trkpt>
      <trkpt lat="46.83582" lon="4.69772">
        <ele>278</ele>
        <time>2024-04-07T13:29:02Z</time>
      </trkpt>
      <trkpt lat="46.83457" lon="4.69835">
        <ele>277</ele>
        <time>2024-04-07T13:31:58Z</time>
      </trkpt>
      <trkpt lat="46.83483" lon="4.69956">
        <ele>275</ele>
        <time>2024-04-07T13:33:54Z</time>
      </trkpt>
      <trkpt lat="46.83475" lon="4.69954">
        <ele>277</ele>
        <time>2024-04-07T13:34:05Z</time>
      </trkpt>
      <trkpt lat="46.8342" lon="4.69809">
        <ele>281</ele>
        <time>2024-04-07T13:36:36Z</time>
      </trkpt>
      <trkpt lat="46.8338" lon="4.69759">
        <ele>281</ele>
        <time>2024-04-07T13:37:46Z</time>
      </trkpt>
      <trkpt lat="46.8333" lon="4.69707">
        <ele>282</ele>
        <time>2024-04-07T13:39:08Z</time>
      </trkpt>
      <trkpt lat="46.83319" lon="4.69686">
        <ele>281</ele>
        <time>2024-04-07T13:39:32Z</time>
      </trkpt>
      <trkpt lat="46.83304" lon="4.69692">
        <ele>282</ele>
        <time>2024-04-07T13:39:53Z</time>
      </trkpt>
      <trkpt lat="46.83277" lon="4.69774">
        <ele>290</ele>
        <time>2024-04-07T13:41:16Z</time>
      </trkpt>
      <trkpt lat="46.83245" lon="4.69911">
        <ele>298</ele>
        <time>2024-04-07T13:43:28Z</time>
      </trkpt>
      <trkpt lat="46.83224" lon="4.69955">
        <ele>300</ele>
        <time>2024-04-07T13:44:17Z</time>
      </trkpt>
      <trkpt lat="46.83166" lon="4.70113">
        <ele>307</ele>
        <time>2024-04-07T13:47:01Z</time>
      </trkpt>
      <trkpt lat="46.83112" lon="4.70236">
        <ele>314</ele>
        <time>2024-04-07T13:49:15Z</time>
      </trkpt>
      <trkpt lat="46.83089" lon="4.70294">
        <ele>317</ele>
        <time>2024-04-07T13:50:16Z</time>
      </trkpt>
      <trkpt lat="46.83039" lon="4.70409">
        <ele>324</ele>
        <time>2024-04-07T13:52:20Z</time>
      </trkpt>
      <trkpt lat="46.82976" lon="4.70531">
        <ele>329</ele>
        <time>2024-04-07T13:54:40Z</time>
      </trkpt>
      <trkpt lat="46.82953" lon="4.70612">
        <ele>328</ele>
        <time>2024-04-07T13:56:00Z</time>
      </trkpt>
      <trkpt lat="46.82949" lon="4.70649">
        <ele>327</ele>
        <time>2024-04-07T13:56:34Z</time>
      </trkpt>
      <trkpt lat="46.82862" lon="4.7066">
        <ele>329</ele>
        <time>2024-04-07T13:58:30Z</time>
      </trkpt>
      <trkpt lat="46.82789" lon="4.70659">
        <ele>331</ele>
        <time>2024-04-07T14:00:08Z</time>
      </trkpt>
      <trkpt lat="46.82777" lon="4.70664">
        <ele>331</ele>
        <time>2024-04-07T14:00:25Z</time>
      </trkpt>
      <trkpt lat="46.8276" lon="4.70682">
        <ele>331</ele>
        <time>2024-04-07T14:00:53Z</time>
      </trkpt>
      <trkpt lat="46.8274" lon="4.70709">
        <ele>331</ele>
        <time>2024-04-07T14:01:29Z</time>
      </trkpt>
      <trkpt lat="46.82676" lon="4.70826">
        <ele>329</ele>
        <time>2024-04-07T14:03:46Z</time>
      </trkpt>
      <trkpt lat="46.8264" lon="4.70875">
        <ele>326</ele>
        <time>2024-04-07T14:04:51Z</time>
      </trkpt>
      <trkpt lat="46.82565" lon="4.70922">
        <ele>320</ele>
        <time>2024-04-07T14:06:40Z</time>
      </trkpt>
      <trkpt lat="46.82547" lon="4.70938">
        <ele>319</ele>
        <time>2024-04-07T14:07:08Z</time>
      </trkpt>
      <trkpt lat="46.82525" lon="4.70969">
        <ele>317</ele>
        <time>2024-04-07T14:07:49Z</time>
      </trkpt>
      <trkpt lat="46.82458" lon="4.71052">
        <ele>315</ele>
        <time>2024-04-07T14:09:46Z</time>
      </trkpt>
      <trkpt lat="46.82441" lon="4.71086">
        <ele>316</ele>
        <time>2024-04-07T14:10:25Z</time>
      </trkpt>
      <trkpt lat="46.82429" lon="4.71118">
        <ele>318</ele>
        <time>2024-04-07T14:10:58Z</time>
      </trkpt>
      <trkpt lat="46.82405" lon="4.71167">
        <ele>321</ele>
        <time>2024-04-07T14:11:53Z</time>
      </trkpt>
      <trkpt lat="46.82399" lon="4.71184">
        <ele>321</ele>
        <time>2024-04-07T14:12:11Z</time>
      </trkpt>
      <trkpt lat="46.82416" lon="4.71206">
        <ele>320</ele>
        <time>2024-04-07T14:12:41Z</time>
      </trkpt>
      <trkpt lat="46.82415" lon="4.71243">
        <ele>320</ele>
        <time>2024-04-07T14:13:15Z</time>
      </trkpt>
      <trkpt lat="46.82427" lon="4.71287">
        <ele>313</ele>
        <time>2024-04-07T14:13:58Z</time>
      </trkpt>
      <trkpt lat="46.82482" lon="4.71306">
        <ele>314</ele>
        <time>2024-04-07T14:15:13Z</time>
      </trkpt>
      <trkpt lat="46.82482" lon="4.71287">
        <ele>317</ele>
        <time>2024-04-07T14:15:31Z</time>
      </trkpt>
      <trkpt lat="46.82492" lon="4.71285">
        <ele>318</ele>
        <time>2024-04-07T14:15:44Z</time>
      </trkpt>
      <trkpt lat="46.82485" lon="4.71268">
        <ele>320</ele>
        <time>2024-04-07T14:16:02Z</time>
      </trkpt>
      <trkpt lat="46.82486" lon="4.71251">
        <ele>322</ele>
        <time>2024-04-07T14:16:18Z</time>
      </trkpt>
      <trkpt lat="46.82499" lon="4.7125">
        <ele>323</ele>
        <time>2024-04-07T14:16:35Z</time>
      </trkpt>
      <trkpt lat="46.82523" lon="4.7126">
        <ele>316</ele>
        <time>2024-04-07T14:17:09Z</time>
      </trkpt>
      <trkpt lat="46.8254" lon="4.71271">
        <ele>312</ele>
        <time>2024-04-07T14:17:33Z</time>
      </trkpt>
      <trkpt lat="46.8257" lon="4.71273">
        <ele>305</ele>
        <time>2024-04-07T14:18:13Z</time>
      </trkpt>
      <trkpt lat="46.8259" lon="4.71279">
        <ele>302</ele>
        <time>2024-04-07T14:18:41Z</time>
      </trkpt>
      <trkpt lat="46.82609" lon="4.71272">
        <ele>299</ele>
        <time>2024-04-07T14:19:07Z</time>
      </trkpt>
      <trkpt lat="46.82636" lon="4.713">
        <ele>298</ele>
        <time>2024-04-07T14:19:51Z</time>
      </trkpt>
      <trkpt lat="46.82634" lon="4.7131">
        <ele>299</ele>
        <time>2024-04-07T14:20:01Z</time>
      </trkpt>
      <trkpt lat="46.8269" lon="4.71392">
        <ele>292</ele>
        <time>2024-04-07T14:21:46Z</time>
      </trkpt>
      <trkpt lat="46.8271" lon="4.71435">
        <ele>288</ele>
        <time>2024-04-07T14:22:34Z</time>
      </trkpt>
      <trkpt lat="46.82732" lon="4.71493">
        <ele>284</ele>
        <time>2024-04-07T14:23:34Z</time>
      </trkpt>
      <trkpt lat="46.82749" lon="4.71553">
        <ele>280</ele>
        <time>2024-04-07T14:24:34Z</time>
      </trkpt>
      <trkpt lat="46.8277" lon="4.71606">
        <ele>276</ele>
        <time>2024-04-07T14:25:30Z</time>
      </trkpt>
      <trkpt lat="46.82781" lon="4.71614">
        <ele>274</ele>
        <time>2024-04-07T14:25:46Z</time>
      </trkpt>
      <trkpt lat="46.82781" lon="4.71541">
        <ele>278</ele>
        <time>2024-04-07T14:26:53Z</time>
      </trkpt>
      <trkpt lat="46.82776" lon="4.71501">
        <ele>281</ele>
        <time>2024-04-07T14:27:30Z</time>
      </trkpt>
      <trkpt lat="46.82778" lon="4.71446">
        <ele>283</ele>
        <time>2024-04-07T14:28:20Z</time>
      </trkpt>
      <trkpt lat="46.82785" lon="4.71413">
        <ele>285</ele>
        <time>2024-04-07T14:28:52Z</time>
      </trkpt>
      <trkpt lat="46.82797" lon="4.71402">
        <ele>287</ele>
        <time>2024-04-07T14:29:10Z</time>
      </trkpt>
      <trkpt lat="46.8281" lon="4.71402">
        <ele>287</ele>
        <time>2024-04-07T14:29:28Z</time>
      </trkpt>
      <trkpt lat="46.82824" lon="4.71408">
        <ele>287</ele>
        <time>2024-04-07T14:29:47Z</time>
      </trkpt>
      <trkpt lat="46.82862" lon="4.71437">
        <ele>287</ele>
        <time>2024-04-07T14:30:44Z</time>
      </trkpt>
      <trkpt lat="46.82889" lon="4.71476">
        <ele>287</ele>
        <time>2024-04-07T14:31:35Z</time>
      </trkpt>
      <trkpt lat="46.82904" lon="4.71488">
        <ele>288</ele>
        <time>2024-04-07T14:31:58Z</time>
      </trkpt>
      <trkpt lat="46.82926" lon="4.7149">
        <ele>289</ele>
        <time>2024-04-07T14:32:27Z</time>
      </trkpt>
      <trkpt lat="46.82986" lon="4.71526">
        <ele>288</ele>
        <time>2024-04-07T14:33:54Z</time>
      </trkpt>
      <trkpt lat="46.82994" lon="4.71517">
        <ele>288</ele>
        <time>2024-04-07T14:34:07Z</time>
      </trkpt>
      <trkpt lat="46.83004" lon="4.71512">
        <ele>287</ele>
        <time>2024-04-07T14:34:21Z</time>
      </trkpt>
      <trkpt lat="46.83023" lon="4.71515">
        <ele>283</ele>
        <time>2024-04-07T14:34:47Z</time>
      </trkpt>
      <trkpt lat="46.83036" lon="4.71522">
        <ele>281</ele>
        <time>2024-04-07T14:35:05Z</time>
      </trkpt>
      <trkpt lat="46.83094" lon="4.71587">
        <ele>271</ele>
        <time>2024-04-07T14:36:43Z</time>
      </trkpt>
      <trkpt lat="46.83128" lon="4.71591">
        <ele>265</ele>
        <time>2024-04-07T14:37:29Z</time>
      </trkpt>
      <trkpt lat="46.83153" lon="4.71598">
        <ele>260</ele>
        <time>2024-04-07T14:38:02Z</time>
      </trkpt>
      <trkpt lat="46.83212" lon="4.71634">
        <ele>252</ele>
        <time>2024-04-07T14:39:28Z</time>
      </trkpt>
      <trkpt lat="46.83291" lon="4.7167">
        <ele>242</ele>
        <time>2024-04-07T14:41:18Z</time>
      </trkpt>
      <trkpt lat="46.8333" lon="4.71711">
        <ele>237</ele>
        <time>2024-04-07T14:42:22Z</time>
      </trkpt>
      <trkpt lat="46.83358" lon="4.71731">
        <ele>236</ele>
        <time>2024-04-07T14:43:04Z</time>
      </trkpt>
      <trkpt lat="46.83415" lon="4.71748">
        <ele>236</ele>
        <time>2024-04-07T14:44:22Z</time>
      </trkpt>
      <trkpt lat="46.83464" lon="4.71748">
        <ele>237</ele>
        <time>2024-04-07T14:45:27Z</time>
      </trkpt>
      <trkpt lat="46.83523" lon="4.71723">
        <ele>238</ele>
        <time>2024-04-07T14:46:49Z</time>
      </trkpt>
      <trkpt lat="46.83552" lon="4.71724">
        <ele>238</ele>
        <time>2024-04-07T14:47:28Z</time>
      </trkpt>
      <trkpt lat="46.83567" lon="4.71732">
        <ele>238</ele>
        <time>2024-04-07T14:47:49Z</time>
      </trkpt>
      <trkpt lat="46.83583" lon="4.71732">
        <ele>238</ele>
        <time>2024-04-07T14:48:10Z</time>
      </trkpt>
      <trkpt lat="46.83622" lon="4.71746">
        <ele>238</ele>
        <time>2024-04-07T14:49:04Z</time>
      </trkpt>
      <trkpt lat="46.83641" lon="4.71714">
        <ele>238</ele>
        <time>2024-04-07T14:49:43Z</time>
      </trkpt>
      <trkpt lat="46.83645" lon="4.71719">
        <ele>238</ele>
        <time>2024-04-07T14:49:50Z</time>
      </trkpt>
      <trkpt lat="46.83691" lon="4.71743">
        <ele>238</ele>
        <time>2024-04-07T14:50:55Z</time>
      </trkpt>
      <trkpt lat="46.83802" lon="4.71827">
        <ele>245</ele>
        <time>2024-04-07T14:53:42Z</time>
      </trkpt>
      <trkpt lat="46.83813" lon="4.71831">
        <ele>246</ele>
        <time>2024-04-07T14:53:57Z</time>
      </trkpt>
      <trkpt lat="46.83845" lon="4.71856">
        <ele>248</ele>
        <time>2024-04-07T14:54:45Z</time>
      </trkpt>
      <trkpt lat="46.83873" lon="4.71872">
        <ele>251</ele>
        <time>2024-04-07T14:55:25Z</time>
      </trkpt>
      <trkpt lat="46.83916" lon="4.71888">
        <ele>255</ele>
        <time>2024-04-07T14:56:24Z</time>
      </trkpt>
      <trkpt lat="46.8394" lon="4.71902">
        <ele>256</ele>
        <time>2024-04-07T14:56:59Z</time>
      </trkpt>
    </trkseg>
  </trk>
</gpx>